This is the latest recevied weather packets stored in our database for station/object SM0UQT-10. If no packets are shown the sender has not sent any weather packets the latest 10 day(s).
| Time | Temp. | Humidity | Pressure | Rain* | Wind** | Luminosity | Snow |
|---|---|---|---|---|---|---|---|
| 1777579081 | 21.67° C | 36% | 1029.2 hPa | - | - | - | - |
| 1777578833 | 21.67° C | 36% | 1029.2 hPa | - | - | - | - |
| 1777578135 | 21.11° C | 36% | 1029.2 hPa | - | - | - | - |
| 1777577933 | 21.11° C | 36% | 1029.2 hPa | - | - | - | - |
| 1777577132 | 21.67° C | 36% | 1029.4 hPa | - | - | - | - |
| 1777577033 | 21.67° C | 36% | 1029.4 hPa | - | - | - | - |
| 1777576992 | 22.22° C | 35% | 1029.4 hPa | - | - | - | - |
| 1777576355 | 22.22° C | 33% | 1029.3 hPa | - | - | - | - |
| 1777576193 | 22.22° C | 33% | 1029.3 hPa | - | - | - | - |
| 1777575296 | 25.56° C | 29% | 1029.2 hPa | - | - | - | - |
| 1777574425 | 20.56° C | 34% | 1029.3 hPa | - | - | - | - |
| 1777574392 | 20.56° C | 34% | 1029.3 hPa | - | - | - | - |
| 1777573783 | 22.22° C | 33% | 1029.3 hPa | - | - | - | - |
| 1777573492 | 22.22° C | 33% | 1029.3 hPa | - | - | - | - |
| 1777572756 | 22.22° C | 32% | 1029.2 hPa | - | - | - | - |
| 1777572592 | 22.22° C | 32% | 1029.2 hPa | - | - | - | - |
| 1777571739 | 22.78° C | 32% | 1029.1 hPa | - | - | - | - |
| 1777571692 | 22.78° C | 32% | 1029.1 hPa | - | - | - | - |
| 1777570937 | 21.67° C | 34% | 1029 hPa | - | - | - | - |
| 1777570792 | 21.67° C | 34% | 1029 hPa | - | - | - | - |
| 1777570180 | 21.11° C | 34% | 1028.9 hPa | - | - | - | - |
| 1777569891 | 21.11° C | 34% | 1028.9 hPa | - | - | - | - |
| 1777569208 | 21.67° C | 33% | 1029 hPa | - | - | - | - |
| 1777568991 | 21.67° C | 33% | 1029 hPa | - | - | - | - |
| 1777568122 | 21.67° C | 34% | 1028.9 hPa | - | - | - | - |
* Rain since midnight (hover to see other rain measurements)
** Current wind speed in m/s (hover to see current wind gust speed)